Time;durP1;ratioP1;P1;durP2;ratioP2;P2;SDS_P1;SDS_P2;PMS_P1;PMS_P2;Temp;Humidity;BMP_temperature;BMP_pressure;BME280_temperature;BME280_humidity;BME280_pressure;Samples;Min_cycle;Max_cycle;Signal;HPM_P1;HPM_P2
2023/11/21 00:02:23;;;;;;;0.90;0.40;;;8.70;99.90;;;;;;5114819;28;20427;-61
2023/11/21 00:04:50;;;;;;;1.70;0.40;;;8.60;99.90;;;;;;5114821;28;20540;-61
2023/11/21 00:07:18;;;;;;;1.10;0.43;;;8.60;99.90;;;;;;5114635;28;20420;-61
2023/11/21 00:09:45;;;;;;;2.40;0.40;;;8.70;99.90;;;;;;5113656;28;20420;-61
2023/11/21 00:12:13;;;;;;;1.10;0.40;;;8.80;99.90;;;;;;5113800;28;20492;-61
2023/11/21 00:14:40;;;;;;;0.70;0.40;;;8.70;99.90;;;;;;5112044;28;20434;-61
2023/11/21 00:17:07;;;;;;;1.30;0.50;;;8.70;99.90;;;;;;5114332;28;20428;-60
2023/11/21 00:19:34;;;;;;;1.38;0.40;;;8.70;99.90;;;;;;5115473;28;20416;-61
2023/11/21 00:22:01;;;;;;;1.00;0.40;;;8.70;99.90;;;;;;5113964;28;20416;-61
2023/11/21 00:24:30;;;;;;;1.00;0.40;;;8.80;99.90;;;;;;5113467;28;20432;-61
2023/11/21 00:26:57;;;;;;;1.27;0.40;;;8.80;99.90;;;;;;5113687;28;20529;-62
2023/11/21 00:29:24;;;;;;;0.70;0.40;;;8.80;99.90;;;;;;5114536;28;20473;-61
2023/11/21 00:31:51;;;;;;;1.90;0.45;;;8.80;99.90;;;;;;5114299;28;20489;-61
2023/11/21 00:34:18;;;;;;;1.25;0.40;;;8.80;99.90;;;;;;5114156;28;20419;-60
2023/11/21 00:36:45;;;;;;;1.60;0.40;;;8.80;99.90;;;;;;5114743;28;20418;-61
2023/11/21 00:39:12;;;;;;;0.70;0.40;;;8.90;99.90;;;;;;5114908;27;20469;-60
2023/11/21 00:41:41;;;;;;;0.90;0.40;;;8.80;99.90;;;;;;5113363;28;20858;-60
2023/11/21 00:44:08;;;;;;;1.17;0.40;;;8.70;99.90;;;;;;5113573;28;20424;-60
2023/11/21 00:46:35;;;;;;;1.70;0.50;;;8.80;99.90;;;;;;5113743;28;20416;-60
2023/11/21 00:49:04;;;;;;;1.88;0.40;;;8.70;99.90;;;;;;5113434;28;20465;-60
2023/11/21 00:51:31;;;;;;;2.58;0.40;;;8.70;99.90;;;;;;5113873;28;20424;-60
2023/11/21 00:53:58;;;;;;;2.13;0.50;;;8.90;99.90;;;;;;5113993;28;20519;-60
2023/11/21 00:56:25;;;;;;;3.03;0.40;;;8.80;99.90;;;;;;5113488;28;20428;-60
2023/11/21 00:58:54;;;;;;;1.50;0.30;;;8.80;99.90;;;;;;5113318;28;20416;-60
2023/11/21 01:01:21;;;;;;;1.80;0.70;;;8.80;99.90;;;;;;5112803;28;20464;-61
2023/11/21 01:03:49;;;;;;;1.90;0.40;;;8.80;99.90;;;;;;5113485;28;20424;-61
2023/11/21 01:06:16;;;;;;;0.80;0.30;;;8.90;99.90;;;;;;5113241;28;20440;-59
2023/11/21 01:08:44;;;;;;;1.10;0.40;;;8.90;99.90;;;;;;5113257;28;20527;-60
2023/11/21 01:11:12;;;;;;;1.30;0.35;;;9.00;99.90;;;;;;5113208;28;20416;-60
2023/11/21 01:13:39;;;;;;;1.30;0.40;;;9.10;99.90;;;;;;5112780;28;21032;-60
2023/11/21 01:16:08;;;;;;;1.40;0.30;;;9.10;99.90;;;;;;5113944;28;20419;-60
2023/11/21 01:18:36;;;;;;;0.80;0.30;;;9.10;99.90;;;;;;5112563;28;20424;-60
2023/11/21 01:21:03;;;;;;;0.70;0.30;;;8.90;99.90;;;;;;5112992;28;20670;-60
2023/11/21 01:23:30;;;;;;;1.20;0.30;;;8.90;99.90;;;;;;5113598;28;20831;-60
2023/11/21 01:25:58;;;;;;;0.90;0.30;;;8.90;99.90;;;;;;5113137;28;20907;-60
2023/11/21 01:28:25;;;;;;;0.77;0.30;;;8.90;99.90;;;;;;5112484;28;20436;-60
2023/11/21 01:30:52;;;;;;;0.80;0.30;;;8.90;99.90;;;;;;5113045;28;20477;-60
2023/11/21 01:33:21;;;;;;;1.50;0.37;;;8.80;99.90;;;;;;5112935;28;20511;-60
2023/11/21 01:35:48;;;;;;;1.10;0.30;;;8.80;99.90;;;;;;5112740;28;20841;-60
2023/11/21 01:38:17;;;;;;;1.20;0.40;;;8.90;99.90;;;;;;5113271;28;20423;-60
2023/11/21 01:40:44;;;;;;;0.80;0.30;;;8.90;99.90;;;;;;5113857;28;20443;-60
2023/11/21 01:43:11;;;;;;;0.55;0.30;;;9.10;99.90;;;;;;5113440;28;20431;-60
2023/11/21 01:45:39;;;;;;;1.60;0.30;;;9.00;99.90;;;;;;5112880;28;20439;-60
2023/11/21 01:48:07;;;;;;;0.80;0.30;;;9.00;99.90;;;;;;5113395;28;20416;-60
2023/11/21 01:50:35;;;;;;;0.50;0.30;;;8.90;99.90;;;;;;5112619;28;20469;-60
2023/11/21 01:53:03;;;;;;;0.50;0.20;;;8.90;99.90;;;;;;5111869;28;20420;-61
2023/11/21 01:55:30;;;;;;;0.80;0.30;;;8.80;99.90;;;;;;5112840;28;20865;-61
2023/11/21 01:57:58;;;;;;;1.80;0.30;;;8.90;99.90;;;;;;5112956;28;20511;-60
2023/11/21 02:00:25;;;;;;;0.88;0.30;;;8.80;99.90;;;;;;5113301;28;20473;-60
2023/11/21 02:02:52;;;;;;;1.20;0.30;;;8.80;99.90;;;;;;5112604;28;20424;-60
2023/11/21 02:05:21;;;;;;;1.08;0.20;;;8.80;99.90;;;;;;5111747;28;20505;-59
2023/11/21 02:07:52;;;;;;;1.60;0.30;;;8.80;99.90;;;;;;5112170;28;20420;-60
2023/11/21 02:10:22;;;;;;;0.70;0.30;;;8.80;99.90;;;;;;5112088;28;20423;-59
2023/11/21 02:12:51;;;;;;;1.50;0.30;;;8.80;99.90;;;;;;5112447;28;20722;-59
2023/11/21 02:15:20;;;;;;;1.05;0.20;;;8.80;99.90;;;;;;5112485;28;20518;-60
2023/11/21 02:17:50;;;;;;;1.00;0.30;;;8.80;99.90;;;;;;5112273;28;20824;-60
2023/11/21 02:20:19;;;;;;;1.42;0.30;;;8.80;99.90;;;;;;5112187;28;20417;-60
2023/11/21 02:22:52;;;;;;;1.38;0.30;;;8.80;99.90;;;;;;5112559;28;20473;-60
2023/11/21 02:25:19;;;;;;;0.70;0.30;;;8.80;99.90;;;;;;5112620;28;20428;-59
2023/11/21 02:27:48;;;;;;;0.60;0.30;;;8.80;99.90;;;;;;5113435;28;20416;-60
2023/11/21 02:30:16;;;;;;;1.85;0.30;;;8.80;99.90;;;;;;5113062;28;20424;-59
2023/11/21 02:32:43;;;;;;;0.50;0.30;;;8.80;99.90;;;;;;5112462;28;20428;-60
2023/11/21 02:35:12;;;;;;;0.90;0.30;;;8.80;99.90;;;;;;5112506;28;20496;-61
2023/11/21 02:37:40;;;;;;;1.00;0.30;;;8.80;99.90;;;;;;5113316;28;20518;-60
2023/11/21 02:40:12;;;;;;;0.95;0.30;;;8.80;99.90;;;;;;5111858;28;20741;-60
2023/11/21 02:42:40;;;;;;;0.77;0.40;;;8.70;99.90;;;;;;5112614;28;20530;-61
2023/11/21 02:45:08;;;;;;;1.00;0.30;;;8.70;99.90;;;;;;5111691;28;20501;-60
2023/11/21 02:47:35;;;;;;;1.20;0.30;;;8.70;99.90;;;;;;5111546;28;20835;-60
2023/11/21 02:50:02;;;;;;;0.70;0.30;;;8.70;99.90;;;;;;5112133;28;20416;-60
2023/11/21 02:52:29;;;;;;;0.70;0.20;;;8.70;99.90;;;;;;5112400;28;20873;-60
2023/11/21 02:54:56;;;;;;;1.17;0.20;;;8.60;99.90;;;;;;5111200;28;20723;-60
2023/11/21 02:57:24;;;;;;;0.50;0.22;;;8.60;99.90;;;;;;5112823;28;20866;-60
2023/11/21 02:59:51;;;;;;;0.40;0.20;;;8.60;99.90;;;;;;5111307;28;20506;-61
2023/11/21 03:02:18;;;;;;;1.30;0.30;;;8.50;99.90;;;;;;5111583;28;20869;-60
2023/11/21 03:04:45;;;;;;;0.60;0.20;;;8.50;99.90;;;;;;5114525;28;20420;-60
2023/11/21 03:07:12;;;;;;;1.30;0.20;;;8.60;99.90;;;;;;5115224;27;20424;-61
2023/11/21 03:09:39;;;;;;;0.98;0.30;;;8.60;99.90;;;;;;5114845;28;20839;-60
2023/11/21 03:12:06;;;;;;;0.70;0.20;;;8.60;99.90;;;;;;5114965;28;20989;-60
2023/11/21 03:14:35;;;;;;;0.88;0.20;;;8.60;99.90;;;;;;5115264;28;20469;-60
2023/11/21 03:17:05;;;;;;;0.40;0.20;;;8.50;99.90;;;;;;5116253;28;20408;-60
2023/11/21 03:19:32;;;;;;;1.20;0.20;;;8.60;99.90;;;;;;5116284;28;20492;-61
2023/11/21 03:21:59;;;;;;;0.50;0.20;;;8.60;99.90;;;;;;5116629;28;20696;-61
2023/11/21 03:24:26;;;;;;;0.93;0.20;;;8.60;99.90;;;;;;5115205;28;20424;-61
2023/11/21 03:26:53;;;;;;;0.70;0.20;;;8.60;99.90;;;;;;5115285;28;20428;-61
2023/11/21 03:29:20;;;;;;;0.73;0.20;;;8.60;99.90;;;;;;5116435;28;20416;-61
2023/11/21 03:31:48;;;;;;;0.40;0.20;;;8.60;99.90;;;;;;5115830;28;20469;-60
2023/11/21 03:34:16;;;;;;;0.70;0.20;;;8.60;99.90;;;;;;5116248;28;20484;-61
2023/11/21 03:36:46;;;;;;;0.50;0.20;;;8.60;99.90;;;;;;5117573;28;20439;-60
2023/11/21 03:39:13;;;;;;;1.50;0.20;;;8.70;99.90;;;;;;5116939;28;20424;-61
2023/11/21 03:41:40;;;;;;;0.70;0.20;;;8.70;99.90;;;;;;5115524;28;20479;-61
2023/11/21 03:44:07;;;;;;;0.52;0.13;;;8.70;99.90;;;;;;5115965;28;20507;-60
2023/11/21 03:46:34;;;;;;;0.40;0.10;;;8.60;99.90;;;;;;5115864;28;20477;-60
2023/11/21 03:49:02;;;;;;;0.30;0.10;;;8.60;99.90;;;;;;5115941;28;20843;-60
2023/11/21 03:51:29;;;;;;;0.60;0.20;;;8.60;99.90;;;;;;5115206;28;20467;-60
2023/11/21 03:53:56;;;;;;;1.40;0.20;;;8.60;99.90;;;;;;5115354;28;20659;-61
2023/11/21 03:56:23;;;;;;;0.40;0.20;;;8.60;99.90;;;;;;5114779;28;20465;-60
2023/11/21 03:58:50;;;;;;;0.47;0.20;;;8.60;99.90;;;;;;5115672;28;20461;-60
2023/11/21 04:01:22;;;;;;;0.30;0.20;;;8.60;99.90;;;;;;5114873;28;21000;-60
2023/11/21 04:03:50;;;;;;;0.47;0.20;;;8.60;99.90;;;;;;5115647;28;20420;-59
2023/11/21 04:06:19;;;;;;;1.52;0.20;;;8.60;99.90;;;;;;5111149;28;20485;-59
2023/11/21 04:08:46;;;;;;;0.35;0.20;;;8.60;99.90;;;;;;5093902;28;20437;-59
2023/11/21 04:11:13;;;;;;;0.80;0.20;;;8.60;99.90;;;;;;5094418;28;20417;-59
2023/11/21 04:13:40;;;;;;;0.30;0.10;;;8.60;99.90;;;;;;5094555;28;20462;-59
2023/11/21 04:16:08;;;;;;;0.45;0.20;;;8.50;99.90;;;;;;5094246;28;20483;-59
2023/11/21 04:18:36;;;;;;;0.70;0.20;;;8.50;99.90;;;;;;5094603;28;20426;-59
2023/11/21 04:21:03;;;;;;;0.80;0.20;;;8.50;99.90;;;;;;5094862;28;20430;-59
2023/11/21 04:23:32;;;;;;;0.37;0.10;;;8.50;99.90;;;;;;5094817;28;20417;-59
2023/11/21 04:25:59;;;;;;;0.50;0.20;;;8.50;99.90;;;;;;5094691;28;20517;-59
2023/11/21 04:28:26;;;;;;;1.40;0.30;;;8.50;99.90;;;;;;5093775;28;20421;-60
2023/11/21 04:30:53;;;;;;;1.30;0.30;;;8.70;99.90;;;;;;5093936;28;20456;-60
2023/11/21 04:33:21;;;;;;;0.90;0.30;;;8.60;99.90;;;;;;5094272;28;20476;-60
2023/11/21 04:35:48;;;;;;;0.40;0.20;;;8.60;99.90;;;;;;5092230;28;20425;-59
2023/11/21 04:38:15;;;;;;;0.70;0.20;;;8.60;99.90;;;;;;5094203;28;20464;-59
2023/11/21 04:40:43;;;;;;;0.40;0.20;;;8.50;99.90;;;;;;5094160;28;20438;-60
2023/11/21 04:43:10;;;;;;;0.70;0.22;;;8.40;99.90;;;;;;5094690;28;20761;-59
2023/11/21 04:45:38;;;;;;;0.85;0.20;;;8.30;99.90;;;;;;5092821;28;20430;-59
2023/11/21 04:48:06;;;;;;;0.50;0.20;;;8.30;99.90;;;;;;5091995;28;20433;-59
2023/11/21 04:50:33;;;;;;;0.90;0.30;;;8.30;99.90;;;;;;5092694;28;20425;-60
2023/11/21 04:53:00;;;;;;;1.30;0.20;;;8.30;99.90;;;;;;5093541;28;20414;-59
2023/11/21 04:55:27;;;;;;;0.70;0.10;;;8.20;99.90;;;;;;5092085;28;20857;-60
2023/11/21 04:57:56;;;;;;;0.47;0.20;;;8.10;99.90;;;;;;5093563;28;20430;-59
2023/11/21 05:00:23;;;;;;;0.30;0.10;;;8.10;99.90;;;;;;5091681;28;20875;-61
2023/11/21 05:02:50;;;;;;;0.50;0.20;;;8.10;99.90;;;;;;5092497;28;20418;-59
2023/11/21 05:05:17;;;;;;;1.15;0.10;;;8.10;99.90;;;;;;5092731;28;20414;-59
2023/11/21 05:07:45;;;;;;;0.50;0.20;;;8.10;99.90;;;;;;5091318;28;20406;-58
2023/11/21 05:10:14;;;;;;;0.68;0.20;;;8.20;99.90;;;;;;5091751;28;20425;-58
2023/11/21 05:12:42;;;;;;;0.50;0.20;;;8.20;99.90;;;;;;5092571;28;20433;-57
2023/11/21 05:15:14;;;;;;;1.38;0.20;;;8.20;99.90;;;;;;5093781;28;20772;-59
2023/11/21 05:17:42;;;;;;;0.30;0.10;;;8.30;99.90;;;;;;5092211;28;20421;-59
2023/11/21 05:20:11;;;;;;;0.40;0.20;;;8.30;99.90;;;;;;5091353;28;20772;-59
2023/11/21 05:22:38;;;;;;;1.00;0.20;;;8.40;99.90;;;;;;5090387;28;20681;-59
2023/11/21 05:25:08;;;;;;;0.40;0.20;;;8.40;99.90;;;;;;5090342;28;20429;-58
2023/11/21 05:27:35;;;;;;;0.60;0.20;;;8.40;99.90;;;;;;5089435;28;20599;-57
2023/11/21 05:30:05;;;;;;;0.30;0.20;;;8.40;99.90;;;;;;5090121;28;20486;-59
2023/11/21 05:32:33;;;;;;;0.50;0.13;;;8.50;99.90;;;;;;5090475;28;20410;-58
2023/11/21 05:35:00;;;;;;;0.40;0.20;;;8.50;99.90;;;;;;5089762;28;20922;-58
2023/11/21 05:37:27;;;;;;;0.35;0.20;;;8.50;99.90;;;;;;5090356;28;20918;-58
2023/11/21 05:39:56;;;;;;;0.40;0.20;;;8.50;99.90;;;;;;5090235;28;20424;-58
2023/11/21 05:42:23;;;;;;;0.40;0.20;;;8.50;99.90;;;;;;5092026;28;20426;-57
2023/11/21 05:44:50;;;;;;;0.43;0.10;;;8.50;99.90;;;;;;5091708;28;20742;-56
2023/11/21 05:47:17;;;;;;;0.30;0.10;;;8.50;99.90;;;;;;5090945;28;20429;-59
2023/11/21 05:49:50;;;;;;;0.40;0.20;;;8.50;99.90;;;;;;5091091;28;20421;-59
2023/11/21 05:52:17;;;;;;;0.63;0.20;;;8.60;99.90;;;;;;5092043;28;20424;-58
2023/11/21 05:54:44;;;;;;;0.40;0.20;;;8.70;99.90;;;;;;5092060;28;20477;-58
2023/11/21 05:57:11;;;;;;;0.60;0.20;;;8.70;99.90;;;;;;5089941;28;20410;-58
2023/11/21 05:59:38;;;;;;;0.60;0.20;;;8.70;99.90;;;;;;5090925;28;20461;-56
2023/11/21 06:02:05;;;;;;;0.40;0.20;;;8.70;99.90;;;;;;5091971;28;20425;-54
2023/11/21 06:04:35;;;;;;;0.43;0.20;;;8.60;99.90;;;;;;5090026;28;20565;-58
2023/11/21 06:07:04;;;;;;;0.40;0.20;;;8.70;99.90;;;;;;5088749;28;20495;-59
2023/11/21 06:09:31;;;;;;;0.40;0.17;;;8.80;99.90;;;;;;5088101;28;20421;-58
2023/11/21 06:11:58;;;;;;;0.40;0.20;;;8.90;99.90;;;;;;5087637;28;20414;-58
2023/11/21 06:14:25;;;;;;;0.70;0.20;;;8.80;99.90;;;;;;5088395;28;20425;-57
2023/11/21 06:16:52;;;;;;;0.40;0.20;;;8.70;99.90;;;;;;5088534;28;20418;-58
2023/11/21 06:19:19;;;;;;;0.50;0.20;;;8.70;99.90;;;;;;5088299;28;20429;-60
2023/11/21 06:21:47;;;;;;;0.40;0.10;;;8.80;99.90;;;;;;5088170;28;20475;-58
2023/11/21 06:24:16;;;;;;;0.60;0.20;;;9.00;99.90;;;;;;5088337;28;20672;-59
2023/11/21 06:26:45;;;;;;;0.40;0.10;;;9.00;99.90;;;;;;5086056;28;21045;-59
2023/11/21 06:29:11;;;;;;;0.80;0.20;;;9.00;99.90;;;;;;5085885;28;20406;-59
2023/11/21 06:31:40;;;;;;;0.40;0.20;;;8.90;99.90;;;;;;5088482;28;20781;-58
2023/11/21 06:34:09;;;;;;;0.40;0.20;;;8.90;99.90;;;;;;5089537;28;20868;-58
2023/11/21 06:36:36;;;;;;;0.50;0.20;;;8.80;99.90;;;;;;5089865;28;20737;-57
2023/11/21 06:39:03;;;;;;;0.60;0.20;;;8.80;99.90;;;;;;5090126;28;20478;-58
2023/11/21 06:41:31;;;;;;;0.60;0.23;;;8.80;99.90;;;;;;5093410;28;20771;-57
2023/11/21 06:43:59;;;;;;;0.60;0.30;;;8.70;99.90;;;;;;5093462;28;20472;-59
2023/11/21 06:46:25;;;;;;;0.70;0.30;;;8.60;99.90;;;;;;5094088;28;20430;-58
2023/11/21 06:48:53;;;;;;;1.10;0.30;;;8.60;99.90;;;;;;5093407;28;20470;-58
2023/11/21 06:51:20;;;;;;;0.50;0.25;;;8.50;99.90;;;;;;5093533;28;20430;-56
2023/11/21 06:53:47;;;;;;;0.40;0.20;;;8.50;99.90;;;;;;5094577;28;20414;-57
2023/11/21 06:56:17;;;;;;;0.70;0.20;;;8.50;99.90;;;;;;5094305;28;20822;-57
2023/11/21 06:58:49;;;;;;;0.50;0.20;;;8.50;99.90;;;;;;5093723;28;20419;-58
2023/11/21 07:01:16;;;;;;;0.70;0.40;;;8.50;99.90;;;;;;5093823;28;20421;-58
2023/11/21 07:03:43;;;;;;;0.90;0.30;;;8.50;99.90;;;;;;5092182;28;20535;-58
2023/11/21 07:06:10;;;;;;;0.60;0.30;;;8.50;99.90;;;;;;5086869;28;20443;-58
2023/11/21 07:08:37;;;;;;;0.50;0.30;;;8.50;99.90;;;;;;5091133;28;20456;-57
2023/11/21 07:11:04;;;;;;;0.63;0.30;;;8.60;99.90;;;;;;5091876;28;20418;-58
2023/11/21 07:13:31;;;;;;;0.60;0.27;;;8.80;99.90;;;;;;5093658;28;20486;-59
2023/11/21 07:16:00;;;;;;;0.80;0.40;;;8.80;99.90;;;;;;5091349;28;20432;-59
2023/11/21 07:18:27;;;;;;;0.60;0.30;;;8.80;99.90;;;;;;5089962;28;20430;-59
2023/11/21 07:20:54;;;;;;;0.90;0.50;;;8.80;99.90;;;;;;5091522;28;20482;-60
2023/11/21 07:23:22;;;;;;;1.95;0.70;;;8.70;99.90;;;;;;5091471;28;20437;-59
2023/11/21 07:25:49;;;;;;;0.50;0.30;;;8.60;99.90;;;;;;5092896;28;20417;-59
2023/11/21 07:28:16;;;;;;;0.80;0.30;;;8.60;99.90;;;;;;5092884;28;20434;-59
2023/11/21 07:30:43;;;;;;;1.00;0.40;;;8.60;99.90;;;;;;5092015;28;20429;-59
2023/11/21 07:33:12;;;;;;;0.60;0.30;;;8.50;99.90;;;;;;5092191;28;20566;-59
2023/11/21 07:35:39;;;;;;;0.70;0.40;;;8.50;99.90;;;;;;5092109;28;20694;-59
2023/11/21 07:38:06;;;;;;;0.80;0.40;;;8.50;99.90;;;;;;5092565;28;20417;-59
2023/11/21 07:40:33;;;;;;;0.70;0.30;;;8.50;99.90;;;;;;5092862;28;20426;-59
2023/11/21 07:43:00;;;;;;;0.70;0.30;;;8.50;99.90;;;;;;5092499;28;20503;-57
2023/11/21 07:45:28;;;;;;;0.90;0.30;;;8.60;99.90;;;;;;5091759;28;20428;-59
2023/11/21 07:47:55;;;;;;;1.02;0.30;;;8.60;99.90;;;;;;5090085;28;21037;-58
2023/11/21 07:50:24;;;;;;;0.80;0.40;;;8.70;99.90;;;;;;5088709;28;20515;-58
2023/11/21 07:52:51;;;;;;;0.90;0.40;;;8.80;99.90;;;;;;5088607;28;20409;-58
2023/11/21 07:55:18;;;;;;;0.85;0.40;;;8.80;99.90;;;;;;5089385;28;21123;-58
2023/11/21 07:57:45;;;;;;;0.90;0.60;;;8.80;99.90;;;;;;5090357;28;20422;-58
2023/11/21 08:00:15;;;;;;;0.50;0.30;;;8.90;99.90;;;;;;5090905;28;20414;-57
2023/11/21 08:02:45;;;;;;;1.00;0.40;;;8.90;99.90;;;;;;5093156;28;20433;-58
2023/11/21 08:05:13;;;;;;;0.90;0.50;;;9.00;99.90;;;;;;5094548;28;20520;-58
2023/11/21 08:07:41;;;;;;;3.75;1.20;;;9.00;99.90;;;;;;5093829;28;20441;-57
2023/11/21 08:10:10;;;;;;;2.13;0.90;;;9.00;99.90;;;;;;5093684;28;20425;-58
2023/11/21 08:12:38;;;;;;;1.30;0.40;;;8.90;99.90;;;;;;5092165;28;20545;-58
2023/11/21 08:15:07;;;;;;;1.17;0.50;;;8.90;99.90;;;;;;5090627;28;20422;-58
2023/11/21 08:17:35;;;;;;;0.60;0.30;;;8.90;99.90;;;;;;5089411;28;20410;-59
2023/11/21 08:20:03;;;;;;;0.70;0.30;;;8.90;99.90;;;;;;5092947;28;20418;-59
2023/11/21 08:22:30;;;;;;;0.52;0.30;;;8.90;99.90;;;;;;5090895;28;20732;-60
2023/11/21 08:24:59;;;;;;;0.55;0.30;;;8.90;99.90;;;;;;5088342;28;20422;-59
2023/11/21 08:27:26;;;;;;;1.70;0.40;;;8.90;99.90;;;;;;5090370;28;20813;-59
2023/11/21 08:29:54;;;;;;;0.68;0.35;;;8.90;99.90;;;;;;5090370;28;20421;-59
2023/11/21 08:32:21;;;;;;;0.52;0.30;;;9.00;99.90;;;;;;5092352;28;20422;-59
2023/11/21 08:34:50;;;;;;;0.70;0.40;;;9.00;99.90;;;;;;5093043;28;21080;-59
2023/11/21 08:37:17;;;;;;;1.60;0.40;;;9.00;99.90;;;;;;5092754;28;20433;-59
2023/11/21 08:39:45;;;;;;;0.50;0.30;;;9.00;99.90;;;;;;5092346;28;20488;-59
2023/11/21 08:42:13;;;;;;;0.50;0.30;;;9.20;99.90;;;;;;5091188;28;20480;-59
2023/11/21 08:44:40;;;;;;;0.85;0.40;;;9.30;99.90;;;;;;5089344;28;21025;-59
2023/11/21 08:47:07;;;;;;;1.60;0.50;;;9.40;99.90;;;;;;5088408;28;20432;-59
2023/11/21 08:49:34;;;;;;;0.80;0.40;;;9.30;99.90;;;;;;5088695;28;20432;-59
2023/11/21 08:52:01;;;;;;;0.77;0.50;;;9.40;99.90;;;;;;5090962;28;20837;-59
2023/11/21 08:54:28;;;;;;;1.90;0.50;;;9.50;99.90;;;;;;5090143;28;20421;-59
2023/11/21 08:56:57;;;;;;;1.30;0.50;;;9.50;99.90;;;;;;5090055;28;20475;-59
2023/11/21 08:59:26;;;;;;;1.80;0.50;;;9.50;99.90;;;;;;5089303;28;20457;-60
2023/11/21 09:01:53;;;;;;;1.00;0.50;;;9.70;99.90;;;;;;5089216;28;20494;-59
2023/11/21 09:04:20;;;;;;;1.60;0.40;;;9.70;99.90;;;;;;5090311;28;20422;-59
2023/11/21 09:06:47;;;;;;;0.90;0.30;;;9.90;99.90;;;;;;5091501;28;20422;-59
2023/11/21 09:09:14;;;;;;;0.50;0.30;;;10.10;99.90;;;;;;5090909;28;20712;-59
2023/11/21 09:11:41;;;;;;;1.10;0.60;;;10.10;99.90;;;;;;5090260;28;20436;-60
2023/11/21 09:14:08;;;;;;;1.10;0.30;;;10.20;99.90;;;;;;5092719;28;20475;-60
2023/11/21 09:16:36;;;;;;;1.20;0.40;;;10.30;99.90;;;;;;5091338;28;20428;-59
2023/11/21 09:19:05;;;;;;;1.20;0.60;;;10.50;99.90;;;;;;5093271;28;20479;-60
2023/11/21 09:21:32;;;;;;;1.20;0.40;;;10.50;99.90;;;;;;5092047;28;20856;-60
2023/11/21 09:23:59;;;;;;;1.80;0.63;;;10.40;99.90;;;;;;5090410;28;20421;-59
2023/11/21 09:26:26;;;;;;;1.60;0.40;;;10.30;99.90;;;;;;5091691;28;20414;-61
2023/11/21 09:28:56;;;;;;;1.10;0.30;;;10.40;99.90;;;;;;5091764;28;20434;-59
2023/11/21 09:31:24;;;;;;;4.40;1.90;;;10.40;99.90;;;;;;5089896;28;20429;-59
2023/11/21 09:33:52;;;;;;;1.27;0.70;;;10.40;99.90;;;;;;5089622;28;20733;-59
2023/11/21 09:36:21;;;;;;;0.70;0.40;;;10.40;99.90;;;;;;5090167;28;20887;-58
2023/11/21 09:38:49;;;;;;;0.90;0.30;;;10.50;99.90;;;;;;5090002;28;20500;-59
2023/11/21 09:41:39;;;;;;;1.00;0.40;;;10.40;99.90;;;;;;5092852;28;20479;-60
2023/11/21 09:44:12;;;;;;;0.63;0.32;;;10.40;99.90;;;;;;5091670;28;20834;-59
2023/11/21 09:46:42;;;;;;;2.75;0.80;;;10.70;99.90;;;;;;5092559;28;20694;-58
2023/11/21 09:49:13;;;;;;;1.33;0.30;;;11.00;99.90;;;;;;5092165;28;20426;-59
2023/11/21 09:51:43;;;;;;;0.60;0.30;;;11.30;99.90;;;;;;5092419;28;20430;-59
2023/11/21 09:54:12;;;;;;;0.60;0.30;;;11.30;99.90;;;;;;5092099;28;20499;-59
2023/11/21 09:56:39;;;;;;;0.50;0.30;;;11.00;99.90;;;;;;5092284;28;20452;-60
2023/11/21 09:59:09;;;;;;;0.50;0.20;;;10.70;99.90;;;;;;5089992;28;20467;-61
2023/11/21 10:01:37;;;;;;;0.60;0.30;;;10.80;99.90;;;;;;5088905;28;20865;-61
2023/11/21 10:04:05;;;;;;;0.70;0.20;;;10.70;99.90;;;;;;5089385;28;20434;-59
2023/11/21 10:06:34;;;;;;;1.00;0.50;;;10.60;99.90;;;;;;5086371;28;20746;-59
2023/11/21 10:09:01;;;;;;;0.60;0.30;;;10.40;99.90;;;;;;5105566;28;20759;-59
2023/11/21 10:11:30;;;;;;;1.10;0.20;;;10.30;99.90;;;;;;5105291;28;20443;-59
2023/11/21 10:14:00;;;;;;;0.40;0.20;;;10.30;99.90;;;;;;5109607;28;20495;-53
2023/11/21 10:16:28;;;;;;;0.50;0.20;;;10.30;99.90;;;;;;5111608;28;20835;-55
2023/11/21 10:18:57;;;;;;;1.70;0.20;;;10.40;99.90;;;;;;5110926;28;20424;-54
2023/11/21 10:21:24;;;;;;;1.00;0.30;;;10.40;99.90;;;;;;5107379;28;20449;-51
2023/11/21 10:23:54;;;;;;;1.35;0.40;;;10.20;99.90;;;;;;5110513;28;20412;-51
2023/11/21 10:26:23;;;;;;;1.20;0.38;;;10.00;99.90;;;;;;5108709;28;20427;-54
2023/11/21 10:28:57;;;;;;;0.70;0.30;;;10.20;99.90;;;;;;5108136;28;20424;-53
2023/11/21 10:31:25;;;;;;;0.40;0.20;;;10.20;99.90;;;;;;5097874;28;20787;-53
2023/11/21 10:33:53;;;;;;;0.40;0.20;;;10.00;99.90;;;;;;5090987;28;20745;-55
2023/11/21 10:36:27;;;;;;;0.32;0.20;;;10.10;99.90;;;;;;5092107;28;20516;-56
2023/11/21 10:38:57;;;;;;;0.40;0.10;;;10.20;99.90;;;;;;5090413;28;20495;-53
2023/11/21 10:41:25;;;;;;;0.40;0.20;;;10.30;99.90;;;;;;5089045;28;20753;-54
2023/11/21 10:43:55;;;;;;;0.60;0.20;;;10.50;99.90;;;;;;5090959;28;20651;-52
2023/11/21 10:46:25;;;;;;;0.43;0.20;;;10.60;99.90;;;;;;5082869;28;20475;-54
2023/11/21 10:48:55;;;;;;;0.30;0.10;;;10.70;99.90;;;;;;5089814;28;20437;-57
2023/11/21 10:51:24;;;;;;;0.40;0.20;;;10.80;99.90;;;;;;5090747;28;20720;-56
2023/11/21 10:53:52;;;;;;;0.40;0.20;;;10.90;99.90;;;;;;5090111;28;20436;-57
2023/11/21 10:56:24;;;;;;;0.43;0.20;;;10.90;99.90;;;;;;5088318;28;20413;-55
2023/11/21 10:58:51;;;;;;;0.50;0.20;;;10.70;99.90;;;;;;5075607;28;20481;-56
2023/11/21 11:01:21;;;;;;;0.60;0.20;;;10.60;99.90;;;;;;5087785;28;20454;-56
2023/11/21 11:03:49;;;;;;;0.50;0.20;;;10.70;99.90;;;;;;5085150;28;20845;-57
2023/11/21 11:06:16;;;;;;;0.50;0.20;;;10.70;99.90;;;;;;5077477;28;20432;-54
2023/11/21 11:08:43;;;;;;;0.60;0.20;;;10.70;99.90;;;;;;5086959;28;20449;-56
2023/11/21 11:11:11;;;;;;;0.40;0.20;;;10.80;99.90;;;;;;5083565;28;20814;-57
2023/11/21 11:13:45;;;;;;;0.30;0.10;;;10.90;99.90;;;;;;5087707;28;20924;-56
2023/11/21 11:16:17;;;;;;;0.35;0.20;;;10.90;99.90;;;;;;5088704;28;20492;-54
2023/11/21 11:18:45;;;;;;;0.50;0.20;;;10.80;99.90;;;;;;5085527;28;20429;-56
2023/11/21 11:21:24;;;;;;;0.40;0.20;;;10.80;99.90;;;;;;5085342;28;20458;-55
2023/11/21 11:24:11;;;;;;;0.40;0.20;;;10.90;99.90;;;;;;5076749;28;20435;-56
2023/11/21 11:26:47;;;;;;;0.40;0.20;;;11.10;99.90;;;;;;5083708;28;20947;-55
2023/11/21 11:29:28;;;;;;;0.70;0.20;;;11.10;99.90;;;;;;5092084;28;20430;-57
2023/11/21 11:32:10;;;;;;;1.23;0.20;;;11.20;99.90;;;;;;5091094;28;20414;-56
2023/11/21 11:34:43;;;;;;;0.40;0.20;;;11.10;99.90;;;;;;5088550;28;20881;-57
2023/11/21 11:37:10;;;;;;;0.40;0.20;;;11.20;99.90;;;;;;5093078;28;20699;-55
2023/11/21 11:39:41;;;;;;;0.40;0.20;;;11.30;99.90;;;;;;5072258;28;20411;-56
2023/11/21 11:42:09;;;;;;;0.35;0.20;;;11.40;99.90;;;;;;5073491;28;20489;-57
2023/11/21 11:44:52;;;;;;;0.50;0.30;;;11.40;99.90;;;;;;5092340;28;20489;-57
2023/11/21 11:47:27;;;;;;;0.60;0.30;;;11.50;99.90;;;;;;5087768;28;20437;-56
2023/11/21 11:50:12;;;;;;;0.50;0.20;;;11.70;99.90;;;;;;5090957;28;20430;-57
2023/11/21 11:52:41;;;;;;;0.40;0.20;;;11.60;99.90;;;;;;5093201;28;20747;-57
2023/11/21 11:55:14;;;;;;;0.40;0.20;;;11.60;99.90;;;;;;5094829;28;20516;-57
2023/11/21 11:57:42;;;;;;;0.40;0.30;;;11.80;99.90;;;;;;5091457;28;20471;-57
2023/11/21 12:00:20;;;;;;;1.20;0.30;;;11.70;99.90;;;;;;5093637;28;20421;-57
2023/11/21 12:02:48;;;;;;;0.47;0.20;;;11.70;99.90;;;;;;5092789;28;20718;-58
2023/11/21 12:05:17;;;;;;;0.50;0.30;;;11.50;99.90;;;;;;5091922;28;20406;-55
2023/11/21 12:07:50;;;;;;;0.40;0.20;;;11.60;99.90;;;;;;5092898;28;20429;-57
2023/11/21 12:10:17;;;;;;;0.45;0.20;;;11.60;99.90;;;;;;5100820;28;20792;-57
2023/11/21 12:12:49;;;;;;;0.40;0.20;;;11.80;99.90;;;;;;5112627;28;20416;-55
2023/11/21 12:15:18;;;;;;;0.57;0.30;;;11.70;99.90;;;;;;5111621;28;20424;-58
2023/11/21 12:17:46;;;;;;;2.00;0.30;;;11.60;99.90;;;;;;5110907;28;20710;-59
2023/11/21 12:20:17;;;;;;;0.43;0.25;;;11.50;99.90;;;;;;5111298;28;20484;-59
2023/11/21 12:22:48;;;;;;;0.75;0.40;;;11.50;99.90;;;;;;5111037;28;20423;-59
2023/11/21 12:25:18;;;;;;;0.60;0.30;;;11.50;99.90;;;;;;5111764;28;20451;-63
2023/11/21 12:27:46;;;;;;;0.52;0.30;;;11.50;99.90;;;;;;5112074;28;20416;-59
2023/11/21 12:30:15;;;;;;;0.60;0.30;;;11.60;99.90;;;;;;5112690;28;20769;-59
2023/11/21 12:32:45;;;;;;;1.00;0.40;;;11.70;99.90;;;;;;5113200;28;20424;-62
2023/11/21 12:35:13;;;;;;;1.80;0.30;;;11.80;99.90;;;;;;5113509;28;20499;-55
2023/11/21 12:37:42;;;;;;;0.50;0.30;;;11.70;99.90;;;;;;5112379;28;20427;-54
2023/11/21 12:40:11;;;;;;;0.70;0.40;;;11.60;99.90;;;;;;5112951;28;20906;-56
2023/11/21 12:42:40;;;;;;;0.60;0.30;;;11.60;99.90;;;;;;5112770;28;20459;-56
2023/11/21 12:45:19;;;;;;;0.60;0.30;;;11.60;99.90;;;;;;5113145;28;20489;-54
2023/11/21 12:47:50;;;;;;;0.50;0.30;;;11.70;99.90;;;;;;5113863;28;20450;-54
2023/11/21 12:50:23;;;;;;;0.60;0.30;;;11.70;99.90;;;;;;5113063;28;20495;-55
2023/11/21 12:52:53;;;;;;;0.40;0.20;;;11.50;99.90;;;;;;5113983;28;21550;-57
2023/11/21 12:55:22;;;;;;;0.40;0.20;;;11.40;99.90;;;;;;5112182;28;20769;-59
2023/11/21 12:57:54;;;;;;;1.10;0.30;;;11.30;99.90;;;;;;5111946;28;20424;-58
2023/11/21 13:00:29;;;;;;;0.40;0.30;;;11.00;99.90;;;;;;5111536;28;20423;-59